sensor_id;sensor_type;location;lat;lon;timestamp;P1;durP1;ratioP1;P2;durP2;ratioP2
50709;SDS011;37033;49.994;21.992;2023-04-20T00:01:24;12.70;;;9.30;;
50709;SDS011;37033;49.994;21.992;2023-04-20T00:03:54;18.80;;;9.20;;
50709;SDS011;37033;49.994;21.992;2023-04-20T00:06:25;16.00;;;9.50;;
50709;SDS011;37033;49.994;21.992;2023-04-20T00:08:56;14.80;;;9.30;;
50709;SDS011;37033;49.994;21.992;2023-04-20T00:11:27;19.50;;;9.80;;
50709;SDS011;37033;49.994;21.992;2023-04-20T00:13:58;15.90;;;9.40;;
50709;SDS011;37033;49.994;21.992;2023-04-20T00:16:29;12.90;;;8.30;;
50709;SDS011;37033;49.994;21.992;2023-04-20T00:19:00;17.30;;;10.00;;
50709;SDS011;37033;49.994;21.992;2023-04-20T00:21:30;12.60;;;8.80;;
50709;SDS011;37033;49.994;21.992;2023-04-20T00:24:01;18.20;;;9.10;;
50709;SDS011;37033;49.994;21.992;2023-04-20T00:26:32;11.70;;;8.60;;
50709;SDS011;37033;49.994;21.992;2023-04-20T00:29:03;11.70;;;8.20;;
50709;SDS011;37033;49.994;21.992;2023-04-20T00:31:33;15.20;;;9.00;;
50709;SDS011;37033;49.994;21.992;2023-04-20T00:34:04;11.80;;;8.60;;
50709;SDS011;37033;49.994;21.992;2023-04-20T00:36:35;13.30;;;7.90;;
50709;SDS011;37033;49.994;21.992;2023-04-20T00:39:05;15.50;;;9.10;;
50709;SDS011;37033;49.994;21.992;2023-04-20T00:41:36;15.20;;;8.40;;
50709;SDS011;37033;49.994;21.992;2023-04-20T00:44:07;14.00;;;8.30;;
50709;SDS011;37033;49.994;21.992;2023-04-20T00:46:40;12.20;;;8.80;;
50709;SDS011;37033;49.994;21.992;2023-04-20T00:49:11;15.90;;;9.50;;
50709;SDS011;37033;49.994;21.992;2023-04-20T00:51:41;12.30;;;8.50;;
50709;SDS011;37033;49.994;21.992;2023-04-20T00:54:13;15.20;;;8.30;;
50709;SDS011;37033;49.994;21.992;2023-04-20T00:56:43;15.90;;;9.20;;
50709;SDS011;37033;49.994;21.992;2023-04-20T00:59:14;13.80;;;8.50;;
50709;SDS011;37033;49.994;21.992;2023-04-20T01:01:45;12.90;;;8.80;;
50709;SDS011;37033;49.994;21.992;2023-04-20T01:04:16;18.30;;;9.30;;
50709;SDS011;37033;49.994;21.992;2023-04-20T01:06:47;17.80;;;9.70;;
50709;SDS011;37033;49.994;21.992;2023-04-20T01:09:18;14.30;;;9.70;;
50709;SDS011;37033;49.994;21.992;2023-04-20T01:11:49;16.80;;;9.10;;
50709;SDS011;37033;49.994;21.992;2023-04-20T01:14:20;14.50;;;9.60;;
50709;SDS011;37033;49.994;21.992;2023-04-20T01:16:50;19.50;;;10.40;;
50709;SDS011;37033;49.994;21.992;2023-04-20T01:19:22;14.60;;;9.50;;
50709;SDS011;37033;49.994;21.992;2023-04-20T01:21:53;19.40;;;10.50;;
50709;SDS011;37033;49.994;21.992;2023-04-20T01:24:24;14.90;;;10.60;;
50709;SDS011;37033;49.994;21.992;2023-04-20T01:26:54;22.50;;;12.80;;
50709;SDS011;37033;49.994;21.992;2023-04-20T01:29:25;20.70;;;12.80;;
50709;SDS011;37033;49.994;21.992;2023-04-20T01:31:56;21.60;;;13.60;;
50709;SDS011;37033;49.994;21.992;2023-04-20T01:34:27;20.90;;;13.20;;
50709;SDS011;37033;49.994;21.992;2023-04-20T01:36:58;22.00;;;14.30;;
50709;SDS011;37033;49.994;21.992;2023-04-20T01:39:29;26.30;;;15.30;;
50709;SDS011;37033;49.994;21.992;2023-04-20T01:41:59;27.90;;;15.30;;
50709;SDS011;37033;49.994;21.992;2023-04-20T01:44:30;30.80;;;16.90;;
50709;SDS011;37033;49.994;21.992;2023-04-20T01:47:01;25.80;;;15.90;;
50709;SDS011;37033;49.994;21.992;2023-04-20T01:49:32;27.30;;;16.60;;
50709;SDS011;37033;49.994;21.992;2023-04-20T01:52:03;26.70;;;16.20;;
50709;SDS011;37033;49.994;21.992;2023-04-20T01:54:34;25.40;;;17.50;;
50709;SDS011;37033;49.994;21.992;2023-04-20T01:57:05;25.50;;;16.20;;
50709;SDS011;37033;49.994;21.992;2023-04-20T01:59:35;30.80;;;18.10;;
50709;SDS011;37033;49.994;21.992;2023-04-20T02:02:06;26.50;;;17.00;;
50709;SDS011;37033;49.994;21.992;2023-04-20T02:04:37;24.50;;;17.60;;
50709;SDS011;37033;49.994;21.992;2023-04-20T02:07:07;26.30;;;16.80;;
50709;SDS011;37033;49.994;21.992;2023-04-20T02:09:38;28.80;;;16.50;;
50709;SDS011;37033;49.994;21.992;2023-04-20T02:12:09;28.40;;;16.60;;
50709;SDS011;37033;49.994;21.992;2023-04-20T02:14:40;27.50;;;16.10;;
50709;SDS011;37033;49.994;21.992;2023-04-20T02:17:10;25.50;;;16.00;;
50709;SDS011;37033;49.994;21.992;2023-04-20T02:19:41;32.00;;;18.30;;
50709;SDS011;37033;49.994;21.992;2023-04-20T02:22:13;33.10;;;20.80;;
50709;SDS011;37033;49.994;21.992;2023-04-20T02:24:44;32.10;;;20.00;;
50709;SDS011;37033;49.994;21.992;2023-04-20T02:27:15;25.90;;;16.40;;
50709;SDS011;37033;49.994;21.992;2023-04-20T02:29:45;26.70;;;17.10;;
50709;SDS011;37033;49.994;21.992;2023-04-20T02:32:16;28.60;;;17.30;;
50709;SDS011;37033;49.994;21.992;2023-04-20T02:34:47;29.90;;;16.10;;
50709;SDS011;37033;49.994;21.992;2023-04-20T02:37:17;26.40;;;16.40;;
50709;SDS011;37033;49.994;21.992;2023-04-20T02:39:48;25.00;;;15.30;;
50709;SDS011;37033;49.994;21.992;2023-04-20T02:42:18;26.60;;;15.20;;
50709;SDS011;37033;49.994;21.992;2023-04-20T02:44:49;27.20;;;15.20;;
50709;SDS011;37033;49.994;21.992;2023-04-20T02:47:20;25.00;;;14.90;;
50709;SDS011;37033;49.994;21.992;2023-04-20T02:49:51;23.80;;;13.30;;
50709;SDS011;37033;49.994;21.992;2023-04-20T02:52:21;22.00;;;13.20;;
50709;SDS011;37033;49.994;21.992;2023-04-20T02:54:52;22.60;;;14.60;;
50709;SDS011;37033;49.994;21.992;2023-04-20T02:57:23;23.70;;;16.40;;
50709;SDS011;37033;49.994;21.992;2023-04-20T02:59:53;20.60;;;13.60;;
50709;SDS011;37033;49.994;21.992;2023-04-20T03:02:24;22.20;;;14.60;;
50709;SDS011;37033;49.994;21.992;2023-04-20T03:04:55;20.60;;;13.30;;
50709;SDS011;37033;49.994;21.992;2023-04-20T03:07:25;19.10;;;12.40;;
50709;SDS011;37033;49.994;21.992;2023-04-20T03:09:56;19.70;;;13.00;;
50709;SDS011;37033;49.994;21.992;2023-04-20T03:12:27;21.20;;;13.20;;
50709;SDS011;37033;49.994;21.992;2023-04-20T03:14:58;23.30;;;13.00;;
50709;SDS011;37033;49.994;21.992;2023-04-20T03:17:29;18.60;;;12.00;;
50709;SDS011;37033;49.994;21.992;2023-04-20T03:19:59;23.50;;;13.00;;
50709;SDS011;37033;49.994;21.992;2023-04-20T03:22:31;24.30;;;12.60;;
50709;SDS011;37033;49.994;21.992;2023-04-20T03:25:02;21.40;;;12.90;;
50709;SDS011;37033;49.994;21.992;2023-04-20T03:27:33;19.50;;;12.60;;
50709;SDS011;37033;49.994;21.992;2023-04-20T03:30:04;17.70;;;11.80;;
50709;SDS011;37033;49.994;21.992;2023-04-20T03:32:36;19.70;;;12.30;;
50709;SDS011;37033;49.994;21.992;2023-04-20T03:35:09;21.50;;;13.90;;
50709;SDS011;37033;49.994;21.992;2023-04-20T03:37:40;22.90;;;13.30;;
50709;SDS011;37033;49.994;21.992;2023-04-20T03:40:13;20.00;;;12.10;;
50709;SDS011;37033;49.994;21.992;2023-04-20T03:42:44;17.50;;;12.70;;
50709;SDS011;37033;49.994;21.992;2023-04-20T03:45:15;17.30;;;11.80;;
50709;SDS011;37033;49.994;21.992;2023-04-20T03:47:46;20.50;;;13.40;;
50709;SDS011;37033;49.994;21.992;2023-04-20T03:50:17;27.80;;;13.90;;
50709;SDS011;37033;49.994;21.992;2023-04-20T03:52:48;40.80;;;24.50;;
50709;SDS011;37033;49.994;21.992;2023-04-20T03:55:21;23.10;;;16.10;;
50709;SDS011;37033;49.994;21.992;2023-04-20T03:57:52;27.50;;;14.80;;
50709;SDS011;37033;49.994;21.992;2023-04-20T04:00:23;21.60;;;14.60;;
50709;SDS011;37033;49.994;21.992;2023-04-20T04:02:56;21.10;;;13.90;;
50709;SDS011;37033;49.994;21.992;2023-04-20T04:05:27;24.80;;;14.60;;
50709;SDS011;37033;49.994;21.992;2023-04-20T04:08:01;21.40;;;14.40;;
50709;SDS011;37033;49.994;21.992;2023-04-20T04:10:32;19.40;;;13.70;;
50709;SDS011;37033;49.994;21.992;2023-04-20T04:13:03;21.70;;;14.30;;
50709;SDS011;37033;49.994;21.992;2023-04-20T04:15:33;25.60;;;15.70;;
50709;SDS011;37033;49.994;21.992;2023-04-20T04:18:04;24.50;;;15.00;;
50709;SDS011;37033;49.994;21.992;2023-04-20T04:20:35;22.30;;;15.30;;
50709;SDS011;37033;49.994;21.992;2023-04-20T04:23:06;26.60;;;15.20;;
50709;SDS011;37033;49.994;21.992;2023-04-20T04:25:37;25.00;;;15.30;;
50709;SDS011;37033;49.994;21.992;2023-04-20T04:28:09;20.20;;;14.50;;
50709;SDS011;37033;49.994;21.992;2023-04-20T04:30:41;24.00;;;14.20;;
50709;SDS011;37033;49.994;21.992;2023-04-20T04:33:15;22.60;;;14.10;;
50709;SDS011;37033;49.994;21.992;2023-04-20T04:35:48;22.20;;;14.90;;
50709;SDS011;37033;49.994;21.992;2023-04-20T04:38:22;22.60;;;14.10;;
50709;SDS011;37033;49.994;21.992;2023-04-20T04:40:55;19.20;;;13.50;;
50709;SDS011;37033;49.994;21.992;2023-04-20T04:43:26;22.10;;;14.20;;
50709;SDS011;37033;49.994;21.992;2023-04-20T04:45:57;21.80;;;14.00;;
50709;SDS011;37033;49.994;21.992;2023-04-20T04:48:34;25.30;;;14.60;;
50709;SDS011;37033;49.994;21.992;2023-04-20T04:51:07;26.10;;;14.50;;
50709;SDS011;37033;49.994;21.992;2023-04-20T04:53:38;26.00;;;14.30;;
50709;SDS011;37033;49.994;21.992;2023-04-20T04:56:11;23.50;;;14.30;;
50709;SDS011;37033;49.994;21.992;2023-04-20T04:58:42;20.90;;;13.60;;
50709;SDS011;37033;49.994;21.992;2023-04-20T05:01:16;20.00;;;13.50;;
50709;SDS011;37033;49.994;21.992;2023-04-20T05:03:47;21.00;;;13.00;;
50709;SDS011;37033;49.994;21.992;2023-04-20T05:06:18;18.60;;;11.70;;
50709;SDS011;37033;49.994;21.992;2023-04-20T05:08:52;19.90;;;11.30;;
50709;SDS011;37033;49.994;21.992;2023-04-20T05:11:25;17.40;;;10.20;;
50709;SDS011;37033;49.994;21.992;2023-04-20T05:13:56;14.70;;;9.90;;
50709;SDS011;37033;49.994;21.992;2023-04-20T05:16:27;14.40;;;9.90;;
50709;SDS011;37033;49.994;21.992;2023-04-20T05:18:58;15.40;;;10.30;;
50709;SDS011;37033;49.994;21.992;2023-04-20T05:21:31;12.00;;;8.60;;
50709;SDS011;37033;49.994;21.992;2023-04-20T05:24:03;21.90;;;9.40;;
50709;SDS011;37033;49.994;21.992;2023-04-20T05:26:36;12.90;;;9.40;;
50709;SDS011;37033;49.994;21.992;2023-04-20T05:29:07;14.00;;;9.90;;
50709;SDS011;37033;49.994;21.992;2023-04-20T05:31:38;16.50;;;10.00;;
50709;SDS011;37033;49.994;21.992;2023-04-20T05:34:09;16.10;;;9.80;;
50709;SDS011;37033;49.994;21.992;2023-04-20T05:36:39;15.60;;;10.20;;
50709;SDS011;37033;49.994;21.992;2023-04-20T05:39:10;18.80;;;9.70;;
50709;SDS011;37033;49.994;21.992;2023-04-20T05:41:41;17.40;;;9.60;;
50709;SDS011;37033;49.994;21.992;2023-04-20T05:44:12;12.90;;;9.60;;
50709;SDS011;37033;49.994;21.992;2023-04-20T05:46:43;14.60;;;10.20;;
50709;SDS011;37033;49.994;21.992;2023-04-20T05:49:17;16.60;;;10.70;;
50709;SDS011;37033;49.994;21.992;2023-04-20T05:51:48;15.60;;;9.80;;
50709;SDS011;37033;49.994;21.992;2023-04-20T05:54:19;14.70;;;10.70;;
50709;SDS011;37033;49.994;21.992;2023-04-20T05:56:50;12.90;;;9.70;;
50709;SDS011;37033;49.994;21.992;2023-04-20T05:59:20;18.50;;;10.30;;
50709;SDS011;37033;49.994;21.992;2023-04-20T06:01:52;15.10;;;10.20;;
50709;SDS011;37033;49.994;21.992;2023-04-20T06:04:25;16.00;;;10.70;;
50709;SDS011;37033;49.994;21.992;2023-04-20T06:06:57;15.40;;;10.80;;
50709;SDS011;37033;49.994;21.992;2023-04-20T06:09:27;16.60;;;10.80;;
50709;SDS011;37033;49.994;21.992;2023-04-20T06:11:58;20.70;;;11.10;;
50709;SDS011;37033;49.994;21.992;2023-04-20T06:14:29;17.00;;;11.10;;
50709;SDS011;37033;49.994;21.992;2023-04-20T06:17:00;14.60;;;9.90;;
50709;SDS011;37033;49.994;21.992;2023-04-20T06:19:30;13.30;;;9.10;;
50709;SDS011;37033;49.994;21.992;2023-04-20T06:22:01;18.60;;;10.10;;
50709;SDS011;37033;49.994;21.992;2023-04-20T06:24:35;14.60;;;10.00;;
50709;SDS011;37033;49.994;21.992;2023-04-20T06:27:08;14.30;;;8.10;;
50709;SDS011;37033;49.994;21.992;2023-04-20T06:29:39;11.70;;;7.80;;
50709;SDS011;37033;49.994;21.992;2023-04-20T06:32:10;14.00;;;7.10;;
50709;SDS011;37033;49.994;21.992;2023-04-20T06:34:41;10.10;;;7.70;;
50709;SDS011;37033;49.994;21.992;2023-04-20T06:37:11;10.10;;;7.50;;
50709;SDS011;37033;49.994;21.992;2023-04-20T06:39:42;10.60;;;7.10;;
50709;SDS011;37033;49.994;21.992;2023-04-20T06:42:13;14.00;;;7.80;;
50709;SDS011;37033;49.994;21.992;2023-04-20T06:44:45;12.00;;;7.80;;
50709;SDS011;37033;49.994;21.992;2023-04-20T06:47:16;13.30;;;7.70;;
50709;SDS011;37033;49.994;21.992;2023-04-20T06:49:46;11.30;;;7.80;;
50709;SDS011;37033;49.994;21.992;2023-04-20T06:52:17;15.20;;;7.80;;
50709;SDS011;37033;49.994;21.992;2023-04-20T06:54:48;12.00;;;8.50;;
50709;SDS011;37033;49.994;21.992;2023-04-20T06:57:18;15.40;;;8.90;;
50709;SDS011;37033;49.994;21.992;2023-04-20T06:59:49;12.90;;;7.70;;
50709;SDS011;37033;49.994;21.992;2023-04-20T07:02:20;12.10;;;8.10;;
50709;SDS011;37033;49.994;21.992;2023-04-20T07:04:51;13.00;;;8.40;;
50709;SDS011;37033;49.994;21.992;2023-04-20T07:07:27;11.40;;;8.40;;
50709;SDS011;37033;49.994;21.992;2023-04-20T07:09:58;16.10;;;8.70;;
50709;SDS011;37033;49.994;21.992;2023-04-20T07:12:29;12.10;;;8.20;;
50709;SDS011;37033;49.994;21.992;2023-04-20T07:15:00;14.60;;;7.50;;
50709;SDS011;37033;49.994;21.992;2023-04-20T07:17:32;12.50;;;7.10;;
50709;SDS011;37033;49.994;21.992;2023-04-20T07:20:03;18.90;;;7.60;;
50709;SDS011;37033;49.994;21.992;2023-04-20T07:22:35;13.10;;;7.40;;
50709;SDS011;37033;49.994;21.992;2023-04-20T07:25:07;8.90;;;6.70;;
50709;SDS011;37033;49.994;21.992;2023-04-20T07:27:39;10.80;;;7.80;;
50709;SDS011;37033;49.994;21.992;2023-04-20T07:30:10;11.90;;;7.80;;
50709;SDS011;37033;49.994;21.992;2023-04-20T07:32:41;10.40;;;7.80;;
50709;SDS011;37033;49.994;21.992;2023-04-20T07:35:12;12.70;;;7.70;;
50709;SDS011;37033;49.994;21.992;2023-04-20T07:37:43;13.80;;;8.10;;
50709;SDS011;37033;49.994;21.992;2023-04-20T07:40:14;11.90;;;8.30;;
50709;SDS011;37033;49.994;21.992;2023-04-20T07:42:44;12.30;;;7.90;;
50709;SDS011;37033;49.994;21.992;2023-04-20T07:45:15;11.20;;;8.00;;
50709;SDS011;37033;49.994;21.992;2023-04-20T07:47:46;13.60;;;7.30;;
50709;SDS011;37033;49.994;21.992;2023-04-20T07:50:18;19.40;;;8.00;;
50709;SDS011;37033;49.994;21.992;2023-04-20T07:52:49;12.70;;;8.10;;
50709;SDS011;37033;49.994;21.992;2023-04-20T07:55:20;22.60;;;8.20;;
50709;SDS011;37033;49.994;21.992;2023-04-20T07:57:50;14.80;;;8.00;;
50709;SDS011;37033;49.994;21.992;2023-04-20T08:00:21;14.40;;;6.90;;
50709;SDS011;37033;49.994;21.992;2023-04-20T08:02:52;15.30;;;7.40;;
50709;SDS011;37033;49.994;21.992;2023-04-20T08:05:23;18.20;;;7.30;;
50709;SDS011;37033;49.994;21.992;2023-04-20T08:07:54;14.80;;;7.30;;
50709;SDS011;37033;49.994;21.992;2023-04-20T08:10:25;12.10;;;6.60;;
50709;SDS011;37033;49.994;21.992;2023-04-20T08:12:56;11.60;;;7.00;;
50709;SDS011;37033;49.994;21.992;2023-04-20T08:15:27;8.40;;;6.10;;
50709;SDS011;37033;49.994;21.992;2023-04-20T08:17:58;13.50;;;7.80;;
50709;SDS011;37033;49.994;21.992;2023-04-20T08:20:28;13.80;;;6.70;;
50709;SDS011;37033;49.994;21.992;2023-04-20T08:22:59;10.80;;;5.90;;
50709;SDS011;37033;49.994;21.992;2023-04-20T08:25:30;18.20;;;6.90;;
50709;SDS011;37033;49.994;21.992;2023-04-20T08:28:00;15.60;;;7.50;;
50709;SDS011;37033;49.994;21.992;2023-04-20T08:30:31;11.90;;;7.00;;
50709;SDS011;37033;49.994;21.992;2023-04-20T08:33:02;11.30;;;7.20;;
50709;SDS011;37033;49.994;21.992;2023-04-20T08:35:33;20.20;;;7.30;;
50709;SDS011;37033;49.994;21.992;2023-04-20T08:38:03;10.40;;;7.10;;
50709;SDS011;37033;49.994;21.992;2023-04-20T08:40:35;14.60;;;6.70;;
50709;SDS011;37033;49.994;21.992;2023-04-20T08:43:05;13.30;;;6.80;;
50709;SDS011;37033;49.994;21.992;2023-04-20T08:45:36;11.80;;;6.20;;
50709;SDS011;37033;49.994;21.992;2023-04-20T08:48:09;14.80;;;6.80;;
50709;SDS011;37033;49.994;21.992;2023-04-20T08:50:41;15.90;;;6.80;;
50709;SDS011;37033;49.994;21.992;2023-04-20T08:53:11;14.60;;;6.20;;
50709;SDS011;37033;49.994;21.992;2023-04-20T08:55:42;10.70;;;6.20;;
50709;SDS011;37033;49.994;21.992;2023-04-20T08:58:13;11.00;;;5.10;;
50709;SDS011;37033;49.994;21.992;2023-04-20T09:00:48;9.70;;;5.10;;
50709;SDS011;37033;49.994;21.992;2023-04-20T09:03:29;20.40;;;6.00;;
50709;SDS011;37033;49.994;21.992;2023-04-20T09:06:01;10.50;;;5.40;;
50709;SDS011;37033;49.994;21.992;2023-04-20T09:08:34;16.30;;;6.20;;
50709;SDS011;37033;49.994;21.992;2023-04-20T09:11:06;10.60;;;5.90;;
50709;SDS011;37033;49.994;21.992;2023-04-20T09:13:57;11.00;;;5.40;;
50709;SDS011;37033;49.994;21.992;2023-04-20T09:19:02;13.40;;;4.80;;
50709;SDS011;37033;49.994;21.992;2023-04-20T09:21:33;8.60;;;4.40;;
50709;SDS011;37033;49.994;21.992;2023-04-20T09:24:04;13.10;;;5.20;;
50709;SDS011;37033;49.994;21.992;2023-04-20T09:26:36;12.50;;;4.00;;
50709;SDS011;37033;49.994;21.992;2023-04-20T09:29:16;12.90;;;4.40;;
50709;SDS011;37033;49.994;21.992;2023-04-20T09:31:48;15.70;;;4.80;;
50709;SDS011;37033;49.994;21.992;2023-04-20T09:34:19;11.00;;;5.80;;
50709;SDS011;37033;49.994;21.992;2023-04-20T09:36:52;5.90;;;4.00;;
50709;SDS011;37033;49.994;21.992;2023-04-20T09:39:24;10.80;;;4.70;;
50709;SDS011;37033;49.994;21.992;2023-04-20T09:42:02;11.60;;;4.30;;
50709;SDS011;37033;49.994;21.992;2023-04-20T09:44:34;11.80;;;5.00;;
50709;SDS011;37033;49.994;21.992;2023-04-20T09:47:07;11.30;;;3.90;;
50709;SDS011;37033;49.994;21.992;2023-04-20T09:49:46;12.20;;;3.60;;
50709;SDS011;37033;49.994;21.992;2023-04-20T09:52:19;15.20;;;3.90;;
50709;SDS011;37033;49.994;21.992;2023-04-20T09:54:50;8.20;;;3.60;;
50709;SDS011;37033;49.994;21.992;2023-04-20T09:57:22;7.50;;;3.40;;
50709;SDS011;37033;49.994;21.992;2023-04-20T09:59:55;11.60;;;4.20;;
50709;SDS011;37033;49.994;21.992;2023-04-20T10:02:27;9.70;;;3.10;;
50709;SDS011;37033;49.994;21.992;2023-04-20T10:04:58;11.60;;;3.00;;
50709;SDS011;37033;49.994;21.992;2023-04-20T10:07:30;9.30;;;2.70;;
50709;SDS011;37033;49.994;21.992;2023-04-20T10:10:06;5.60;;;2.70;;
50709;SDS011;37033;49.994;21.992;2023-04-20T10:12:48;12.60;;;2.70;;
50709;SDS011;37033;49.994;21.992;2023-04-20T10:15:20;8.30;;;3.20;;
50709;SDS011;37033;49.994;21.992;2023-04-20T10:17:53;6.40;;;1.80;;
50709;SDS011;37033;49.994;21.992;2023-04-20T10:20:25;4.90;;;2.00;;
50709;SDS011;37033;49.994;21.992;2023-04-20T10:23:06;4.70;;;1.90;;
50709;SDS011;37033;49.994;21.992;2023-04-20T10:25:38;5.00;;;1.90;;
50709;SDS011;37033;49.994;21.992;2023-04-20T10:28:09;6.70;;;2.70;;
50709;SDS011;37033;49.994;21.992;2023-04-20T10:30:49;6.00;;;2.00;;
50709;SDS011;37033;49.994;21.992;2023-04-20T10:33:21;6.70;;;2.70;;
50709;SDS011;37033;49.994;21.992;2023-04-20T10:35:52;8.70;;;2.50;;
50709;SDS011;37033;49.994;21.992;2023-04-20T10:38:29;7.50;;;2.40;;
50709;SDS011;37033;49.994;21.992;2023-04-20T10:41:05;5.90;;;2.50;;
50709;SDS011;37033;49.994;21.992;2023-04-20T10:43:37;6.10;;;1.80;;
50709;SDS011;37033;49.994;21.992;2023-04-20T10:46:19;8.90;;;2.10;;
50709;SDS011;37033;49.994;21.992;2023-04-20T10:48:51;6.70;;;2.10;;
50709;SDS011;37033;49.994;21.992;2023-04-20T10:51:23;5.30;;;2.20;;
50709;SDS011;37033;49.994;21.992;2023-04-20T10:54:03;6.10;;;2.00;;
50709;SDS011;37033;49.994;21.992;2023-04-20T10:56:39;3.90;;;1.50;;
50709;SDS011;37033;49.994;21.992;2023-04-20T10:59:11;8.90;;;1.50;;
50709;SDS011;37033;49.994;21.992;2023-04-20T11:01:43;4.70;;;1.60;;
50709;SDS011;37033;49.994;21.992;2023-04-20T11:04:14;7.00;;;1.80;;
50709;SDS011;37033;49.994;21.992;2023-04-20T11:06:45;3.80;;;2.00;;
50709;SDS011;37033;49.994;21.992;2023-04-20T11:09:17;4.10;;;1.50;;
50709;SDS011;37033;49.994;21.992;2023-04-20T11:11:58;6.20;;;2.30;;
50709;SDS011;37033;49.994;21.992;2023-04-20T11:14:30;6.00;;;1.80;;
50709;SDS011;37033;49.994;21.992;2023-04-20T11:17:02;3.00;;;1.70;;
50709;SDS011;37033;49.994;21.992;2023-04-20T11:19:34;6.10;;;2.00;;
50709;SDS011;37033;49.994;21.992;2023-04-20T11:22:05;5.50;;;2.20;;
50709;SDS011;37033;49.994;21.992;2023-04-20T11:24:36;3.90;;;1.60;;
50709;SDS011;37033;49.994;21.992;2023-04-20T11:27:17;4.60;;;1.70;;
50709;SDS011;37033;49.994;21.992;2023-04-20T11:29:56;7.30;;;1.80;;
50709;SDS011;37033;49.994;21.992;2023-04-20T11:32:31;3.80;;;1.50;;
50709;SDS011;37033;49.994;21.992;2023-04-20T11:35:03;7.50;;;1.60;;
50709;SDS011;37033;49.994;21.992;2023-04-20T11:37:45;5.70;;;2.20;;
50709;SDS011;37033;49.994;21.992;2023-04-20T11:40:18;5.60;;;2.20;;
50709;SDS011;37033;49.994;21.992;2023-04-20T11:42:48;2.80;;;1.50;;
50709;SDS011;37033;49.994;21.992;2023-04-20T11:45:19;4.20;;;1.60;;
50709;SDS011;37033;49.994;21.992;2023-04-20T11:47:50;5.00;;;1.60;;
50709;SDS011;37033;49.994;21.992;2023-04-20T11:50:21;5.80;;;1.80;;
50709;SDS011;37033;49.994;21.992;2023-04-20T11:52:52;9.40;;;1.60;;
50709;SDS011;37033;49.994;21.992;2023-04-20T11:55:23;7.30;;;1.50;;
50709;SDS011;37033;49.994;21.992;2023-04-20T11:57:54;1.90;;;1.50;;
50709;SDS011;37033;49.994;21.992;2023-04-20T12:00:24;5.90;;;1.70;;
50709;SDS011;37033;49.994;21.992;2023-04-20T12:02:55;6.70;;;1.80;;
50709;SDS011;37033;49.994;21.992;2023-04-20T12:05:26;5.70;;;1.50;;
50709;SDS011;37033;49.994;21.992;2023-04-20T12:07:57;7.00;;;1.40;;
50709;SDS011;37033;49.994;21.992;2023-04-20T12:10:28;3.20;;;1.30;;
50709;SDS011;37033;49.994;21.992;2023-04-20T12:12:58;6.40;;;1.60;;
50709;SDS011;37033;49.994;21.992;2023-04-20T12:15:29;4.70;;;1.50;;
50709;SDS011;37033;49.994;21.992;2023-04-20T12:18:00;2.80;;;1.90;;
50709;SDS011;37033;49.994;21.992;2023-04-20T12:20:31;5.80;;;1.80;;
50709;SDS011;37033;49.994;21.992;2023-04-20T12:23:02;2.80;;;1.60;;
50709;SDS011;37033;49.994;21.992;2023-04-20T12:25:33;7.30;;;1.60;;
50709;SDS011;37033;49.994;21.992;2023-04-20T12:28:04;5.90;;;1.80;;
50709;SDS011;37033;49.994;21.992;2023-04-20T12:30:34;2.90;;;1.70;;
50709;SDS011;37033;49.994;21.992;2023-04-20T12:33:05;8.10;;;1.80;;
50709;SDS011;37033;49.994;21.992;2023-04-20T12:35:36;3.20;;;1.70;;
50709;SDS011;37033;49.994;21.992;2023-04-20T12:38:06;6.40;;;2.10;;
50709;SDS011;37033;49.994;21.992;2023-04-20T12:40:40;7.70;;;1.70;;
50709;SDS011;37033;49.994;21.992;2023-04-20T12:43:10;5.50;;;1.80;;
50709;SDS011;37033;49.994;21.992;2023-04-20T12:45:41;3.30;;;1.90;;
50709;SDS011;37033;49.994;21.992;2023-04-20T12:48:12;13.50;;;2.40;;
50709;SDS011;37033;49.994;21.992;2023-04-20T12:50:43;3.70;;;1.60;;
50709;SDS011;37033;49.994;21.992;2023-04-20T12:53:13;4.10;;;1.90;;
50709;SDS011;37033;49.994;21.992;2023-04-20T12:55:44;8.70;;;2.10;;
50709;SDS011;37033;49.994;21.992;2023-04-20T12:58:15;3.50;;;1.40;;
50709;SDS011;37033;49.994;21.992;2023-04-20T13:00:45;6.00;;;1.70;;
50709;SDS011;37033;49.994;21.992;2023-04-20T13:03:16;8.10;;;1.70;;
50709;SDS011;37033;49.994;21.992;2023-04-20T13:05:47;6.30;;;1.70;;
50709;SDS011;37033;49.994;21.992;2023-04-20T13:08:21;4.40;;;1.80;;
50709;SDS011;37033;49.994;21.992;2023-04-20T13:10:52;3.10;;;1.30;;
50709;SDS011;37033;49.994;21.992;2023-04-20T13:13:22;8.30;;;1.80;;
50709;SDS011;37033;49.994;21.992;2023-04-20T13:15:53;2.20;;;1.30;;
50709;SDS011;37033;49.994;21.992;2023-04-20T13:18:24;11.00;;;2.70;;
50709;SDS011;37033;49.994;21.992;2023-04-20T13:20:55;5.20;;;1.60;;
50709;SDS011;37033;49.994;21.992;2023-04-20T13:23:28;4.30;;;1.60;;
50709;SDS011;37033;49.994;21.992;2023-04-20T13:25:58;4.60;;;1.80;;
50709;SDS011;37033;49.994;21.992;2023-04-20T13:28:29;3.30;;;1.70;;
50709;SDS011;37033;49.994;21.992;2023-04-20T13:31:00;9.30;;;2.00;;
50709;SDS011;37033;49.994;21.992;2023-04-20T13:33:31;4.50;;;1.70;;
50709;SDS011;37033;49.994;21.992;2023-04-20T13:36:02;8.90;;;1.70;;
50709;SDS011;37033;49.994;21.992;2023-04-20T13:38:33;10.30;;;1.80;;
50709;SDS011;37033;49.994;21.992;2023-04-20T13:41:04;8.00;;;2.20;;
50709;SDS011;37033;49.994;21.992;2023-04-20T13:43:35;8.40;;;2.00;;
50709;SDS011;37033;49.994;21.992;2023-04-20T13:46:06;8.50;;;1.60;;
50709;SDS011;37033;49.994;21.992;2023-04-20T13:48:37;9.60;;;2.20;;
50709;SDS011;37033;49.994;21.992;2023-04-20T13:51:07;5.80;;;2.10;;
50709;SDS011;37033;49.994;21.992;2023-04-20T13:53:38;8.10;;;2.10;;
50709;SDS011;37033;49.994;21.992;2023-04-20T13:56:09;7.90;;;2.50;;
50709;SDS011;37033;49.994;21.992;2023-04-20T13:58:40;7.20;;;1.90;;
50709;SDS011;37033;49.994;21.992;2023-04-20T14:01:11;9.00;;;2.10;;
50709;SDS011;37033;49.994;21.992;2023-04-20T14:03:43;7.10;;;2.10;;
50709;SDS011;37033;49.994;21.992;2023-04-20T14:06:13;6.80;;;1.50;;
50709;SDS011;37033;49.994;21.992;2023-04-20T14:08:44;6.50;;;2.40;;
50709;SDS011;37033;49.994;21.992;2023-04-20T14:11:15;10.50;;;2.10;;
50709;SDS011;37033;49.994;21.992;2023-04-20T14:13:49;6.10;;;2.20;;
50709;SDS011;37033;49.994;21.992;2023-04-20T14:16:19;9.30;;;1.90;;
50709;SDS011;37033;49.994;21.992;2023-04-20T14:18:53;8.50;;;2.00;;
50709;SDS011;37033;49.994;21.992;2023-04-20T14:21:23;5.50;;;2.10;;
50709;SDS011;37033;49.994;21.992;2023-04-20T14:23:54;7.10;;;1.80;;
50709;SDS011;37033;49.994;21.992;2023-04-20T14:26:25;5.30;;;2.00;;
50709;SDS011;37033;49.994;21.992;2023-04-20T14:28:56;6.30;;;1.90;;
50709;SDS011;37033;49.994;21.992;2023-04-20T14:31:27;5.70;;;1.40;;
50709;SDS011;37033;49.994;21.992;2023-04-20T14:33:58;10.40;;;2.10;;
50709;SDS011;37033;49.994;21.992;2023-04-20T14:36:28;7.00;;;1.80;;
50709;SDS011;37033;49.994;21.992;2023-04-20T14:38:59;7.10;;;1.80;;
50709;SDS011;37033;49.994;21.992;2023-04-20T14:41:30;8.00;;;2.20;;
50709;SDS011;37033;49.994;21.992;2023-04-20T14:44:05;10.20;;;2.20;;
50709;SDS011;37033;49.994;21.992;2023-04-20T14:46:37;12.80;;;3.40;;
50709;SDS011;37033;49.994;21.992;2023-04-20T14:49:10;8.00;;;2.30;;